Time;durP1;ratioP1;P1;durP2;ratioP2;P2;SDS_P1;SDS_P2;PMS_P1;PMS_P2;Temp;Humidity;BMP_temperature;BMP_pressure;BME280_temperature;BME280_humidity;BME280_pressure;Samples;Min_cycle;Max_cycle;Signal;HPM_P1;HPM_P2
2022/12/07 00:02:01;;;;;;;33.07;13.67;;;;;;;13.31;nan;101193.00;6084518;23;20479;-91
2022/12/07 00:04:52;;;;;;;46.37;13.77;;;;;;;13.39;nan;101203.84;6084255;23;20452;-91
2022/12/07 00:07:21;;;;;;;33.80;13.20;;;;;;;13.37;nan;101197.69;6108543;23;20397;-92
2022/12/07 00:09:58;;;;;;;34.60;13.70;;;;;;;13.44;nan;101193.13;6086979;23;20470;-92
2022/12/07 00:12:31;;;;;;;26.90;11.93;;;;;;;13.45;nan;101195.66;6108261;23;20398;-92
2022/12/07 00:15:01;;;;;;;28.50;12.83;;;;;;;13.47;nan;101198.19;6108353;23;20472;-92
2022/12/07 00:17:35;;;;;;;35.90;12.43;;;;;;;13.45;nan;101187.44;6084107;23;20421;-92
2022/12/07 00:20:30;;;;;;;33.63;14.10;;;;;;;13.49;nan;101196.09;6084401;23;20793;-92
2022/12/07 00:23:10;;;;;;;29.47;12.77;;;;;;;13.49;nan;101190.59;6131643;23;20424;-92
2022/12/07 00:25:37;;;;;;;29.57;11.43;;;;;;;13.47;nan;101181.69;6084700;23;20748;-92
2022/12/07 00:28:10;;;;;;;39.87;11.20;;;;;;;13.47;nan;101182.56;6107658;23;20781;-92
2022/12/07 00:30:46;;;;;;;25.33;10.70;;;;;;;13.41;nan;101166.06;6107712;23;20413;-92
2022/12/07 00:33:14;;;;;;;31.10;11.03;;;;;;;13.30;nan;101147.38;6083662;23;20495;-91
2022/12/07 00:36:19;;;;;;;25.90;11.17;;;;;;;13.34;nan;101165.16;6084116;23;20417;-92
2022/12/07 00:39:02;;;;;;;25.77;11.00;;;;;;;13.28;nan;101171.44;6156479;23;20425;-91
2022/12/07 00:41:30;;;;;;;31.37;11.60;;;;;;;13.20;nan;101146.91;6108105;23;20405;-92
2022/12/07 00:44:05;;;;;;;25.20;12.20;;;;;;;13.28;nan;101160.47;6084137;23;20472;-92
2022/12/07 00:46:33;;;;;;;23.63;10.53;;;;;;;13.27;nan;101147.81;6083796;23;20771;-92
2022/12/07 00:49:05;;;;;;;23.97;11.63;;;;;;;13.33;nan;101152.47;6107323;23;20417;-90
2022/12/07 00:51:34;;;;;;;28.87;10.70;;;;;;;13.38;nan;101149.97;6107985;23;20409;-92
2022/12/07 00:54:04;;;;;;;36.83;11.73;;;;;;;13.34;nan;101132.22;6128515;23;20496;-91
2022/12/07 00:56:44;;;;;;;29.67;12.33;;;;;;;13.39;nan;101135.22;6131986;23;20416;-92
2022/12/07 00:59:24;;;;;;;19.40;9.97;;;;;;;13.43;nan;101129.13;6131937;23;20472;-92
2022/12/07 01:02:01;;;;;;;23.00;10.00;;;;;;;13.44;nan;101117.09;6132277;23;20544;-92
2022/12/07 01:04:29;;;;;;;24.20;11.03;;;;;;;13.35;nan;101098.22;6132258;23;20485;-92
2022/12/07 01:06:58;;;;;;;22.37;9.87;;;;;;;13.49;nan;101121.94;6131598;23;20413;-92
2022/12/07 01:09:28;;;;;;;27.03;11.07;;;;;;;13.49;nan;101119.19;6131278;23;20401;-92
2022/12/07 01:12:10;;;;;;;24.03;9.60;;;;;;;13.48;nan;101118.34;6107448;23;20485;-92
2022/12/07 01:14:44;;;;;;;31.57;10.00;;;;;;;13.50;nan;101118.13;6132271;23;20480;-92
2022/12/07 01:17:44;;;;;;;28.00;9.37;;;;;;;13.53;nan;101114.16;6107376;23;20416;-92
2022/12/07 01:23:47;;;;;;;21.60;8.20;;;;;;;13.49;nan;101114.56;6156988;23;20871;-92
2022/12/07 01:26:18;;;;;;;22.83;8.80;;;;;;;13.49;nan;101108.22;6131448;23;20540;-92
2022/12/07 01:28:58;;;;;;;21.30;8.70;;;;;;;13.48;nan;101104.63;6131248;23;20417;-92
2022/12/07 01:35:13;;;;;;;22.70;8.97;;;;;;;13.35;nan;101074.34;6157248;23;20468;-93
2022/12/07 01:42:01;;;;;;;16.77;7.33;;;;;;;13.44;nan;101094.25;6156947;23;20376;-93
2022/12/07 01:44:32;;;;;;;15.37;8.13;;;;;;;13.37;nan;101083.25;6131212;23;20420;-94
2022/12/07 01:50:40;;;;;;;16.27;7.93;;;;;;;13.36;nan;101069.72;6157153;23;20430;-94
2022/12/07 01:53:09;;;;;;;20.20;7.50;;;;;;;13.33;nan;101070.13;6124325;23;20498;-94
2022/12/07 01:55:58;;;;;;;15.00;6.80;;;;;;;13.37;nan;101068.66;6112378;23;20420;-94
2022/12/07 01:58:55;;;;;;;17.03;7.80;;;;;;;13.35;nan;101068.03;6161039;23;20416;-94
2022/12/07 02:01:39;;;;;;;16.87;6.83;;;;;;;13.29;nan;101060.59;6136742;23;20412;-94
2022/12/07 02:04:44;;;;;;;18.40;7.20;;;;;;;13.31;nan;101061.25;6112530;23;20737;-93
2022/12/07 02:07:13;;;;;;;15.20;7.20;;;;;;;13.26;nan;101053.63;6160698;23;20421;-93
2022/12/07 02:10:12;;;;;;;18.17;7.17;;;;;;;13.28;nan;101065.22;6112742;23;20408;-94
2022/12/07 02:12:39;;;;;;;16.70;6.90;;;;;;;13.24;nan;101055.75;6161631;23;20408;-94
2022/12/07 02:15:08;;;;;;;23.30;7.50;;;;;;;13.14;nan;101036.84;6125441;23;20404;-93
2022/12/07 02:17:48;;;;;;;14.80;6.47;;;;;;;13.13;nan;101043.38;6126695;23;20410;-94
2022/12/07 02:27:30;;;;;;;18.40;6.30;;;;;;;13.18;nan;101041.97;6186345;23;20896;-93
2022/12/07 02:30:18;;;;;;;23.40;5.57;;;;;;;13.14;nan;101042.34;6138595;23;20408;-93
2022/12/07 02:36:28;;;;;;;16.13;6.13;;;;;;;13.23;nan;101050.44;6186704;23;20375;-94
2022/12/07 02:39:49;;;;;;;15.50;6.20;;;;;;;13.30;nan;101049.41;6136282;23;20469;-94
2022/12/07 02:42:55;;;;;;;11.40;5.80;;;;;;;13.31;nan;101058.50;6160769;23;20414;-94
2022/12/07 02:46:01;;;;;;;16.40;6.73;;;;;;;13.33;nan;101048.16;6159856;23;20480;-93
2022/12/07 02:48:37;;;;;;;16.73;6.57;;;;;;;13.32;nan;101035.47;6160199;23;20727;-93
2022/12/07 02:55:12;;;;;;;10.00;5.57;;;;;;;13.31;nan;101028.28;6186185;23;20494;-94
2022/12/07 03:01:44;;;;;;;11.37;5.23;;;;;;;13.28;nan;101012.22;6188313;23;20371;-94
2022/12/07 03:08:07;;;;;;;13.03;5.27;;;;;;;13.22;nan;100991.13;6188387;23;20383;-94
2022/12/07 03:10:55;;;;;;;18.17;4.90;;;;;;;13.24;nan;100991.75;6138189;23;20419;-94
2022/12/07 03:13:41;;;;;;;11.50;4.70;;;;;;;13.24;nan;100983.53;6162150;23;20474;-95
2022/12/07 03:16:58;;;;;;;13.87;4.97;;;;;;;13.23;nan;100984.56;6164507;23;20738;-94
2022/12/07 03:19:37;;;;;;;14.70;5.03;;;;;;;13.12;nan;100964.84;6162274;23;20875;-94
2022/12/07 03:22:20;;;;;;;11.70;4.70;;;;;;;13.19;nan;100964.06;6137486;23;20905;-94
2022/12/07 03:25:08;;;;;;;15.37;5.27;;;;;;;13.16;nan;100948.88;6113435;23;20419;-95
2022/12/07 03:31:51;;;;;;;14.07;5.83;;;;;;;13.32;nan;100975.09;6188107;23;20874;-94
2022/12/07 03:38:46;;;;;;;13.87;6.77;;;;;;;13.27;nan;100945.53;6188111;23;20944;-94
2022/12/07 03:41:31;;;;;;;14.40;5.50;;;;;;;13.31;nan;100954.19;6049500;23;20418;-94
2022/12/07 03:48:03;;;;;;;22.63;5.30;;;;;;;13.37;nan;100950.63;6097302;23;20426;-94
2022/12/07 03:55:22;;;;;;;14.47;5.53;;;;;;;13.55;nan;100970.09;6096563;23;20421;-94
2022/12/07 04:02:01;;;;;;;11.10;4.40;;;;;;;13.52;nan;100947.69;6096950;23;20415;-94
2022/12/07 04:07:47;;;;;;;19.63;4.90;;;;;;;13.56;nan;100949.81;6096584;23;20425;-94
2022/12/07 04:10:40;;;;;;;14.20;4.43;;;;;;;13.54;nan;100945.59;6025876;23;20419;-95
2022/12/07 04:16:31;;;;;;;12.40;4.57;;;;;;;13.42;nan;100920.66;6077206;23;20426;-94
2022/12/07 04:22:40;;;;;;;13.90;4.33;;;;;;;13.46;nan;100927.41;6157954;23;20448;-94
2022/12/07 04:25:28;;;;;;;10.80;4.13;;;;;;;13.54;nan;100929.09;6084598;23;20413;-93
2022/12/07 04:28:31;;;;;;;11.90;4.10;;;;;;;13.53;nan;100914.53;6108130;23;20520;-94
2022/12/07 04:38:51;;;;;;;10.87;4.70;;;;;;;13.52;nan;100921.06;6157522;23;20871;-94
2022/12/07 04:45:06;;;;;;;10.63;4.53;;;;;;;13.49;nan;100914.09;6157619;23;20484;-94
2022/12/07 04:47:45;;;;;;;14.00;4.57;;;;;;;13.54;nan;100918.97;6083788;23;20444;-95
2022/12/07 04:50:22;;;;;;;11.57;4.80;;;;;;;13.40;nan;100901.63;6107699;23;20492;-94
2022/12/07 04:52:59;;;;;;;15.10;3.70;;;;;;;13.51;nan;100900.16;6083588;23;20528;-93
2022/12/07 04:55:34;;;;;;;13.97;4.73;;;;;;;13.51;nan;100899.31;6083854;23;20759;-94
2022/12/07 04:58:45;;;;;;;13.43;4.13;;;;;;;13.57;nan;100907.56;6083538;23;20413;-94
2022/12/07 05:01:40;;;;;;;8.70;3.77;;;;;;;13.58;nan;100906.53;6131515;23;20416;-94
2022/12/07 05:07:55;;;;;;;6.37;3.53;;;;;;;13.61;nan;100908.84;6157730;23;20880;-93
2022/12/07 05:10:44;;;;;;;9.60;3.40;;;;;;;13.60;nan;100890.69;6084365;23;20757;-92
2022/12/07 05:13:26;;;;;;;12.93;3.97;;;;;;;13.62;nan;100895.97;6131889;23;20574;-93
2022/12/07 05:16:03;;;;;;;8.87;3.67;;;;;;;13.62;nan;100891.31;6107527;23;20413;-92
2022/12/07 05:25:51;;;;;;;5.63;3.20;;;;;;;13.55;nan;100860.25;6157273;23;20456;-94
2022/12/07 05:29:04;;;;;;;8.50;3.67;;;;;;;13.67;nan;100868.69;6083692;23;20413;-92
2022/12/07 05:31:32;;;;;;;19.97;4.13;;;;;;;13.63;nan;100861.94;6131387;23;20752;-93
2022/12/07 05:34:15;;;;;;;8.73;3.60;;;;;;;13.68;nan;100875.88;6085376;23;20915;-93
2022/12/07 05:43:50;;;;;;;10.37;4.23;;;;;;;13.67;nan;100839.31;6162263;23;20852;-93
2022/12/07 05:50:06;;;;;;;9.03;3.97;;;;;;;13.66;nan;100823.91;6157116;23;20409;-92
2022/12/07 05:52:54;;;;;;;9.57;4.20;;;;;;;13.72;nan;100835.94;6131409;23;20492;-92
2022/12/07 05:55:21;;;;;;;6.87;3.17;;;;;;;13.71;nan;100834.25;6106834;23;20433;-92
2022/12/07 06:01:36;;;;;;;13.87;3.50;;;;;;;13.63;nan;100807.88;6157058;23;20428;-93
2022/12/07 06:04:28;;;;;;;10.73;4.20;;;;;;;13.75;nan;100822.63;6106700;23;20419;-92
2022/12/07 06:06:58;;;;;;;11.90;4.10;;;;;;;13.62;nan;100811.66;6131598;23;20532;-93
2022/12/07 06:16:59;;;;;;;17.27;4.53;;;;;;;13.76;nan;100829.81;6157094;23;20380;-91
2022/12/07 06:19:27;;;;;;;10.30;4.30;;;;;;;13.76;nan;100828.97;6107075;23;20413;-92
2022/12/07 06:21:57;;;;;;;11.63;4.83;;;;;;;13.81;nan;100832.78;6107075;23;20509;-93
2022/12/07 06:24:54;;;;;;;11.37;4.87;;;;;;;13.86;nan;100836.78;6107360;23;20477;-91
2022/12/07 06:27:52;;;;;;;10.93;4.10;;;;;;;13.87;nan;100832.97;6131348;23;20516;-92
2022/12/07 06:30:36;;;;;;;12.70;5.17;;;;;;;13.88;nan;100821.78;6131875;23;20688;-94
2022/12/07 06:36:44;;;;;;;12.10;5.93;;;;;;;13.90;nan;100827.06;6158973;23;20436;-93
2022/12/07 06:39:35;;;;;;;10.60;4.87;;;;;;;13.93;nan;100823.88;6108587;23;20417;-94
2022/12/07 06:45:56;;;;;;;14.70;4.93;;;;;;;13.85;nan;100818.63;6158480;23;20427;-94
2022/12/07 06:48:30;;;;;;;11.60;4.40;;;;;;;13.85;nan;100813.13;6109109;23;20403;-94
2022/12/07 06:58:43;;;;;;;11.60;4.90;;;;;;;13.89;nan;100806.13;6188383;23;20427;-94
2022/12/07 07:04:57;;;;;;;10.53;4.60;;;;;;;13.94;nan;100820.91;6188434;23;20704;-92
2022/12/07 07:10:51;;;;;;;11.87;5.53;;;;;;;13.93;nan;100807.41;6187701;23;20415;-93
2022/12/07 07:13:24;;;;;;;13.13;4.73;;;;;;;13.98;nan;100804.84;6114011;23;20427;-94
2022/12/07 07:15:59;;;;;;;15.80;6.30;;;;;;;13.86;nan;100796.41;6162282;23;20416;-93
2022/12/07 07:18:26;;;;;;;13.30;5.53;;;;;;;13.92;nan;100800.22;6113558;23;20411;-93
2022/12/07 07:21:34;;;;;;;11.57;5.13;;;;;;;13.99;nan;100812.03;6113752;23;20423;-92
2022/12/07 07:28:30;;;;;;;13.23;5.40;;;;;;;14.01;nan;100812.69;6188129;23;20459;-94
2022/12/07 07:35:24;;;;;;;10.00;5.80;;;;;;;14.02;nan;100811.63;6188998;23;20424;-93
2022/12/07 07:41:41;;;;;;;20.43;5.90;;;;;;;13.96;nan;100801.47;6187986;23;20404;-93
2022/12/07 07:44:44;;;;;;;18.57;6.43;;;;;;;14.06;nan;100802.69;6112270;23;20494;-92
2022/12/07 07:47:47;;;;;;;17.40;7.63;;;;;;;14.06;nan;100797.22;6162447;23;20786;-92
2022/12/07 07:51:06;;;;;;;12.13;6.40;;;;;;;14.08;nan;100805.25;6137630;23;20785;-91
2022/12/07 07:54:01;;;;;;;20.20;6.97;;;;;;;14.10;nan;100803.13;6161702;23;20415;-91
2022/12/07 07:56:52;;;;;;;17.80;7.93;;;;;;;14.11;nan;100804.81;6132782;23;20424;-91
2022/12/07 07:59:30;;;;;;;17.10;7.47;;;;;;;14.10;nan;100803.13;6132860;23;20776;-92
2022/12/07 08:05:47;;;;;;;16.67;8.17;;;;;;;14.12;nan;100779.03;6068927;23;20415;-94
2022/12/07 08:12:02;;;;;;;22.30;11.27;;;;;;;14.22;nan;100797.81;6068791;23;20383;-92
2022/12/07 08:14:30;;;;;;;18.00;9.60;;;;;;;14.28;nan;100794.19;5998033;23;20934;-93
2022/12/07 08:20:20;;;;;;;45.93;24.33;;;;;;;14.27;nan;100771.34;6111357;23;20417;-92
2022/12/07 08:23:18;;;;;;;21.53;10.23;;;;;;;14.39;nan;100786.13;6085239;23;20891;-91
2022/12/07 08:25:50;;;;;;;24.83;8.40;;;;;;;14.32;nan;100766.03;6109667;23;20393;-93
2022/12/07 08:28:36;;;;;;;24.93;9.83;;;;;;;14.46;nan;100775.09;6084425;23;20407;-92
2022/12/07 08:31:17;;;;;;;26.20;10.87;;;;;;;14.48;nan;100768.31;6107847;23;20472;-92
2022/12/07 08:34:22;;;;;;;31.83;11.10;;;;;;;14.58;nan;100789.03;6086996;23;20397;-92
2022/12/07 08:36:51;;;;;;;31.47;9.87;;;;;;;14.58;nan;100794.53;6132936;23;20806;-92
2022/12/07 08:39:54;;;;;;;25.80;11.00;;;;;;;14.64;nan;100796.38;6109749;23;20416;-93
2022/12/07 08:42:39;;;;;;;28.73;10.90;;;;;;;14.63;nan;100784.53;6131190;23;20412;-91
2022/12/07 08:46:01;;;;;;;29.47;12.70;;;;;;;14.72;nan;100791.50;6088021;23;20405;-92
2022/12/07 08:49:17;;;;;;;21.97;10.60;;;;;;;14.78;nan;100806.28;6131312;23;20420;-92
2022/12/07 08:52:15;;;;;;;23.33;10.03;;;;;;;14.80;nan;100795.91;6157304;23;20440;-90
2022/12/07 08:54:44;;;;;;;33.27;10.30;;;;;;;14.73;nan;100779.41;6108097;23;20437;-93
2022/12/07 08:57:34;;;;;;;23.97;10.20;;;;;;;14.80;nan;100794.00;6084591;23;20421;-92
2022/12/07 09:04:03;;;;;;;20.63;9.60;;;;;;;14.79;nan;100783.22;6157717;23;20396;-92
2022/12/07 09:06:43;;;;;;;24.23;10.17;;;;;;;14.77;nan;100793.59;6155199;23;20625;-92
2022/12/07 09:09:27;;;;;;;16.00;8.10;;;;;;;14.71;nan;100772.44;6083644;23;20782;-93
2022/12/07 09:12:36;;;;;;;12.80;6.57;;;;;;;14.88;nan;100795.63;6131813;23;20413;-91
2022/12/07 09:15:25;;;;;;;11.73;6.63;;;;;;;14.93;nan;100803.22;6132497;23;20939;-91
2022/12/07 09:17:57;;;;;;;19.93;8.83;;;;;;;14.96;nan;100798.13;6131710;23;20417;-92
2022/12/07 09:20:25;;;;;;;12.37;7.13;;;;;;;14.96;nan;100786.28;6160993;23;20413;-92
2022/12/07 09:46:37;;;;;;;29.70;10.20;;;;;;;15.12;nan;100803.09;6157586;23;20384;-92
2022/12/07 10:00:45;;;;;;;24.97;11.80;;;;;;;15.18;nan;100799.47;6186892;23;20463;-91
2022/12/07 10:03:36;;;;;;;23.87;10.30;;;;;;;15.27;nan;100799.19;6136493;23;20470;-91
2022/12/07 10:06:14;;;;;;;28.67;10.90;;;;;;;15.36;nan;100800.59;6185702;23;20690;-90
2022/12/07 10:08:54;;;;;;;19.00;6.77;;;;;;;15.43;nan;100795.88;6160381;23;20776;-90
2022/12/07 10:11:22;;;;;;;15.30;6.90;;;;;;;15.40;nan;100793.56;6112534;23;20426;-91
2022/12/07 10:14:11;;;;;;;15.57;7.70;;;;;;;15.39;nan;100794.66;6021754;23;21050;-89
2022/12/07 10:16:43;;;;;;;17.53;7.50;;;;;;;15.41;nan;100784.22;5997167;23;20502;-92
2022/12/07 10:19:29;;;;;;;21.10;9.80;;;;;;;15.43;nan;100787.59;6020800;23;20415;-88
2022/12/07 10:22:14;;;;;;;28.47;11.87;;;;;;;15.34;nan;100787.06;6041573;23;20467;-88
2022/12/07 10:24:45;;;;;;;45.70;15.87;;;;;;;15.39;nan;100798.25;6065519;23;20918;-88
2022/12/07 10:27:21;;;;;;;70.50;22.30;;;;;;;15.45;nan;100802.84;6018496;23;20447;-87
2022/12/07 10:29:51;;;;;;;48.63;19.00;;;;;;;15.47;nan;100795.19;6068264;23;20835;-87
2022/12/07 10:32:18;;;;;;;37.33;17.30;;;;;;;15.51;nan;100801.09;6098945;23;20412;-88
2022/12/07 10:34:46;;;;;;;41.33;13.20;;;;;;;15.53;nan;100783.28;6160071;23;20419;-88
2022/12/07 10:37:20;;;;;;;35.80;13.33;;;;;;;15.63;nan;100781.94;6114163;23;20482;-88
2022/12/07 10:39:50;;;;;;;47.27;15.40;;;;;;;15.72;nan;100791.63;6111267;23;20487;-88
2022/12/07 10:42:24;;;;;;;49.70;15.10;;;;;;;15.83;nan;100783.44;6135393;23;20903;-88
2022/12/07 10:45:11;;;;;;;44.40;15.47;;;;;;;15.92;nan;100770.22;6136061;23;20408;-88
2022/12/07 10:48:07;;;;;;;35.37;12.40;;;;;;;16.04;nan;100786.84;6136069;23;20522;-88
2022/12/07 10:50:51;;;;;;;42.23;14.30;;;;;;;16.09;nan;100770.47;6159323;23;20411;-88
2022/12/07 10:53:53;;;;;;;38.83;13.10;;;;;;;16.19;nan;100766.09;6159600;23;20472;-88
2022/12/07 10:56:29;;;;;;;34.80;13.87;;;;;;;16.36;nan;100780.09;6159810;23;20539;-88
2022/12/07 10:59:15;;;;;;;35.90;12.93;;;;;;;16.52;nan;100765.69;6159273;23;20436;-88
2022/12/07 11:02:05;;;;;;;28.87;12.47;;;;;;;16.57;nan;100757.53;6159533;23;20408;-88
2022/12/07 11:04:40;;;;;;;38.77;13.73;;;;;;;16.70;nan;100744.69;6139357;23;20414;-88
2022/12/07 11:07:44;;;;;;;54.37;15.83;;;;;;;16.90;nan;100761.78;6111259;23;20566;-88
2022/12/07 11:10:29;;;;;;;37.80;13.63;;;;;;;17.05;nan;100750.31;6134646;23;20419;-88
2022/12/07 11:13:03;;;;;;;34.63;12.50;;;;;;;17.13;nan;100750.78;6070628;23;20410;-87
2022/12/07 11:15:51;;;;;;;31.20;12.23;;;;;;;17.19;nan;100744.31;6070675;23;20407;-87
2022/12/07 11:19:14;;;;;;;34.40;10.60;;;;;;;17.24;nan;100747.22;6026988;23;20523;-87
2022/12/07 11:21:56;;;;;;;37.70;11.63;;;;;;;17.36;nan;100738.09;6043529;23;20485;-88
2022/12/07 11:24:35;;;;;;;31.00;11.23;;;;;;;17.53;nan;100745.44;6022422;23;20954;-88
2022/12/07 11:27:06;;;;;;;37.43;10.60;;;;;;;17.62;nan;100732.13;6044081;23;20436;-88
2022/12/07 11:33:34;;;;;;;50.03;23.63;;;;;;;17.67;nan;100707.41;6155213;23;20403;-88
2022/12/07 11:36:41;;;;;;;47.30;17.27;;;;;;;17.65;nan;100700.41;6132463;23;20806;-88
2022/12/07 11:39:35;;;;;;;33.90;15.17;;;;;;;17.64;nan;100694.06;6043970;23;20926;-88
2022/12/07 11:42:30;;;;;;;28.00;12.23;;;;;;;17.70;nan;100690.34;6020645;23;20388;-87
2022/12/07 11:45:24;;;;;;;31.60;9.27;;;;;;;17.79;nan;100688.84;6066928;23;20412;-88
2022/12/07 12:15:49;;;;;;;31.50;5.23;;;;;;;18.12;nan;100609.88;6196251;22;20434;-89
2022/12/07 12:18:51;;;;;;;22.93;4.00;;;;;;;18.00;nan;100622.94;6161334;23;20397;-89
2022/12/07 12:21:28;;;;;;;22.07;3.33;;;;;;;17.86;nan;100614.94;6187003;23;20804;-89
2022/12/07 12:24:03;;;;;;;21.93;3.63;;;;;;;17.75;nan;100593.66;6162781;23;20388;-88
2022/12/07 12:26:35;;;;;;;19.33;3.23;;;;;;;17.77;nan;100610.84;6112812;23;20401;-88
2022/12/07 12:29:08;;;;;;;20.17;3.90;;;;;;;17.75;nan;100603.88;6136181;23;20419;-88
2022/12/07 12:31:39;;;;;;;20.80;3.50;;;;;;;17.74;nan;100585.63;6112824;23;20531;-88
2022/12/07 12:34:30;;;;;;;19.93;3.10;;;;;;;17.69;nan;100588.28;6161432;23;20479;-88
2022/12/07 12:37:00;;;;;;;23.20;3.40;;;;;;;17.58;nan;100576.13;6161971;23;20404;-89
2022/12/07 12:39:28;;;;;;;16.60;3.90;;;;;;;17.54;nan;100578.53;6137295;23;20774;-88
2022/12/07 12:44:28;;;;;;;18.77;4.10;;;;;;;17.53;nan;100570.50;6161052;23;20876;-89
2022/12/07 12:47:00;;;;;;;10.30;3.30;;;;;;;17.58;nan;100554.03;6186429;23;21069;-89
2022/12/07 12:49:44;;;;;;;10.37;3.47;;;;;;;17.71;nan;100550.16;6160431;23;20498;-89
2022/12/07 12:52:18;;;;;;;17.50;3.70;;;;;;;17.88;nan;100546.41;6113323;23;20903;-89
2022/12/07 12:55:20;;;;;;;12.57;3.80;;;;;;;18.04;nan;100535.63;6186250;23;20490;-89
2022/12/07 12:58:17;;;;;;;11.20;3.50;;;;;;;18.12;nan;100516.69;6142558;23;20494;-89
2022/12/07 13:00:47;;;;;;;8.33;3.43;;;;;;;18.26;nan;100517.22;6178802;23;20415;-88
2022/12/07 13:03:51;;;;;;;17.33;3.23;;;;;;;18.48;nan;100526.44;6135932;23;20400;-89
2022/12/07 13:06:40;;;;;;;9.90;5.80;;;;;;;18.63;nan;100529.50;6136132;23;20486;-88
2022/12/07 13:09:28;;;;;;;25.50;17.03;;;;;;;18.72;nan;100526.28;6136377;23;20535;-89
2022/12/07 13:12:00;;;;;;;22.00;13.90;;;;;;;18.74;nan;100518.56;6136734;23;20482;-88
2022/12/07 13:14:40;;;;;;;17.53;5.90;;;;;;;18.82;nan;100515.41;6112957;23;20432;-89
2022/12/07 13:21:25;;;;;;;9.00;3.07;;;;;;;18.98;nan;100509.81;6186248;23;20384;-88
2022/12/07 13:23:57;;;;;;;8.83;2.97;;;;;;;19.01;nan;100497.41;6156056;23;20484;-89
2022/12/07 13:26:38;;;;;;;8.33;1.70;;;;;;;19.07;nan;100488.03;6112330;23;20415;-89
2022/12/07 13:29:15;;;;;;;5.47;1.90;;;;;;;19.05;nan;100476.38;6135491;23;20454;-89
2022/12/07 13:31:44;;;;;;;8.13;1.70;;;;;;;19.03;nan;100477.75;6136190;23;20475;-89
2022/12/07 13:34:41;;;;;;;10.50;1.80;;;;;;;18.92;nan;100468.44;6112526;23;20395;-89
2022/12/07 13:37:23;;;;;;;10.87;2.00;;;;;;;18.84;nan;100457.81;6135190;23;20430;-89
2022/12/07 14:27:04;;;;;;;19.53;6.07;;;;;;;17.53;nan;100391.72;6239125;22;20405;-87
2022/12/07 14:29:37;;;;;;;22.83;6.40;;;;;;;17.50;nan;100377.56;6130716;23;20987;-86
2022/12/07 14:32:19;;;;;;;11.13;3.07;;;;;;;17.48;nan;100376.97;6129743;23;20910;-89
2022/12/07 14:35:40;;;;;;;14.83;3.10;;;;;;;17.44;nan;100365.59;6131142;23;20397;-90
2022/12/07 14:38:09;;;;;;;16.10;2.60;;;;;;;17.45;nan;100366.41;6154711;23;20411;-91
2022/12/07 14:40:37;;;;;;;19.27;3.37;;;;;;;17.42;nan;100372.44;6130430;23;20413;-90
2022/12/07 14:43:10;;;;;;;19.60;4.27;;;;;;;17.39;nan;100367.41;6106720;23;20564;-91
2022/12/07 14:45:40;;;;;;;16.17;6.07;;;;;;;17.32;nan;100367.53;6131601;23;20487;-90
2022/12/07 14:48:11;;;;;;;22.83;5.57;;;;;;;17.34;nan;100373.66;6106381;23;20952;-89
2022/12/07 14:51:00;;;;;;;15.47;4.83;;;;;;;17.31;nan;100373.34;6134811;23;20397;-89
2022/12/07 14:53:50;;;;;;;13.53;4.40;;;;;;;17.30;nan;100361.47;6116332;23;20409;-89
2022/12/07 14:56:28;;;;;;;25.27;6.90;;;;;;;17.22;nan;100361.84;6109731;23;21031;-89
2022/12/07 14:59:20;;;;;;;16.40;5.80;;;;;;;17.19;nan;100357.66;6132765;23;20419;-86
2022/12/07 15:01:57;;;;;;;21.33;6.70;;;;;;;17.20;nan;100353.81;6136179;23;20400;-89
2022/12/07 15:04:31;;;;;;;23.13;7.67;;;;;;;17.22;nan;100357.16;6155675;23;20487;-89
2022/12/07 15:07:02;;;;;;;27.03;12.70;;;;;;;17.26;nan;100350.06;6107951;23;20724;-89
2022/12/07 15:09:31;;;;;;;25.30;10.10;;;;;;;17.32;nan;100345.44;6108504;23;20595;-89
2022/12/07 15:15:48;;;;;;;19.30;9.53;;;;;;;17.38;nan;100343.63;6157666;23;20376;-89
2022/12/07 15:18:18;;;;;;;17.37;8.20;;;;;;;17.39;nan;100337.84;6107843;23;20555;-89
2022/12/07 15:20:46;;;;;;;38.20;23.07;;;;;;;17.43;nan;100335.44;6107798;23;20951;-89
2022/12/07 15:23:15;;;;;;;49.23;29.20;;;;;;;17.46;nan;100333.00;6107927;23;20394;-89
2022/12/07 15:25:44;;;;;;;48.33;22.57;;;;;;;17.48;nan;100328.09;6131940;23;20408;-89
2022/12/07 15:28:14;;;;;;;45.37;21.47;;;;;;;17.51;nan;100343.34;6136719;23;20526;-90
2022/12/07 15:30:44;;;;;;;43.00;24.83;;;;;;;17.41;nan;100348.66;6137617;23;20400;-89
2022/12/07 15:33:12;;;;;;;30.67;17.07;;;;;;;17.37;nan;100339.19;6113476;23;20797;-90
2022/12/07 15:35:42;;;;;;;26.83;14.63;;;;;;;17.38;nan;100355.50;6113831;23;20404;-90
2022/12/07 15:38:14;;;;;;;39.03;15.93;;;;;;;17.42;nan;100350.34;6112911;23;20423;-89
2022/12/07 15:40:43;;;;;;;27.40;14.23;;;;;;;17.49;nan;100362.09;6113599;23;20487;-90
2022/12/07 15:45:59;;;;;;;105.90;59.90;;;;;;;17.56;nan;100357.22;6146899;23;20550;-88
2022/12/07 15:48:29;;;;;;;36.50;18.47;;;;;;;17.55;nan;100350.00;6083413;23;20442;-90
2022/12/07 15:51:08;;;;;;;41.00;14.17;;;;;;;17.49;nan;100342.75;6078111;23;20413;-90
2022/12/07 15:53:36;;;;;;;31.07;7.00;;;;;;;17.45;nan;100338.78;6077699;23;20719;-88
2022/12/07 15:59:55;;;;;;;17.13;4.83;;;;;;;17.35;nan;100322.00;6044184;23;20473;-89
2022/12/07 16:02:33;;;;;;;30.27;4.13;;;;;;;17.30;nan;100319.19;6077362;23;20410;-89
2022/12/07 16:05:17;;;;;;;16.87;4.90;;;;;;;17.29;nan;100312.81;5959450;24;20437;-89
2022/12/07 16:07:47;;;;;;;20.17;5.77;;;;;;;17.26;nan;100314.16;5967045;23;20963;-90
2022/12/07 16:10:21;;;;;;;19.23;6.20;;;;;;;17.23;nan;100306.34;5992054;23;20543;-88
2022/12/07 16:13:00;;;;;;;26.40;6.53;;;;;;;17.18;nan;100300.72;5992622;23;20445;-90
2022/12/07 16:27:52;;;;;;;37.33;6.40;;;;;;;17.03;nan;100278.38;6038688;23;20396;-90
2022/12/07 16:30:29;;;;;;;26.20;6.37;;;;;;;16.93;nan;100267.94;6127568;23;20914;-89
2022/12/07 16:33:04;;;;;;;30.50;10.00;;;;;;;16.96;nan;100283.19;6136730;23;20416;-92
2022/12/07 16:46:52;;;;;;;29.80;8.23;;;;;;;17.10;nan;100259.72;6187315;23;20376;-89
2022/12/07 16:49:36;;;;;;;32.57;10.63;;;;;;;17.04;nan;100249.66;6161175;23;20431;-89
2022/12/07 17:04:43;;;;;;;35.27;8.30;;;;;;;17.11;nan;100247.59;6187030;23;20408;-90
2022/12/07 17:34:37;;;;;;;39.80;7.20;;;;;;;16.83;nan;100197.94;6156639;23;20424;-90
2022/12/07 17:45:21;;;;;;;34.30;7.57;;;;;;;16.97;nan;100226.88;6137766;23;20401;-91
2022/12/07 18:25:33;;;;;;;42.30;7.73;;;;;;;17.10;nan;100171.38;6157524;23;20392;-93
2022/12/07 18:31:42;;;;;;;58.87;11.40;;;;;;;17.11;nan;100152.88;6161590;23;20704;-93
2022/12/07 18:34:40;;;;;;;53.20;9.97;;;;;;;17.19;nan;100164.31;6114017;23;20469;-92
2022/12/07 18:37:14;;;;;;;41.97;14.53;;;;;;;17.22;nan;100158.28;6138266;23;20721;-95
2022/12/07 18:47:54;;;;;;;58.20;10.87;;;;;;;17.26;nan;100145.66;6189276;23;20484;-92
2022/12/07 18:50:22;;;;;;;42.90;7.43;;;;;;;17.18;nan;100134.19;6164330;23;20721;-92
2022/12/07 18:53:05;;;;;;;60.40;7.07;;;;;;;17.26;nan;100133.78;6114791;23;20492;-92
2022/12/07 18:55:35;;;;;;;66.33;7.43;;;;;;;17.18;nan;100123.13;6145286;23;20396;-91
2022/12/07 18:58:04;;;;;;;62.33;7.03;;;;;;;17.18;nan;100118.44;6127170;23;20416;-91
2022/12/07 19:04:21;;;;;;;56.57;9.13;;;;;;;17.23;nan;100126.81;6190339;23;20380;-92
2022/12/07 19:06:58;;;;;;;223.63;109.73;;;;;;;17.30;nan;100139.63;6115572;23;20858;-92
2022/12/07 19:09:49;;;;;;;226.87;109.87;;;;;;;17.30;nan;100139.63;6162845;23;20448;-94
2022/12/07 19:12:52;;;;;;;162.63;71.83;;;;;;;17.31;nan;100155.13;6136300;23;20796;-93
2022/12/07 19:15:58;;;;;;;100.47;45.60;;;;;;;17.30;nan;100142.41;6162674;23;20411;-94
2022/12/07 19:18:52;;;;;;;98.47;41.17;;;;;;;17.30;nan;100147.91;6162016;23;20419;-93
2022/12/07 19:25:27;;;;;;;48.97;13.43;;;;;;;17.21;nan;100133.69;6188213;23;20431;-94
2022/12/07 19:28:35;;;;;;;59.17;11.37;;;;;;;17.31;nan;100144.91;6161832;23;20744;-93
2022/12/07 19:38:35;;;;;;;44.53;7.33;;;;;;;17.31;nan;100138.53;6158279;23;20427;-92
2022/12/07 19:41:32;;;;;;;50.67;22.27;;;;;;;17.24;nan;100125.75;6108000;23;20417;-92
2022/12/07 19:44:10;;;;;;;57.83;15.10;;;;;;;17.32;nan;100131.94;6113206;23;20893;-92